Time;durP1;ratioP1;P1;durP2;ratioP2;P2;SDS_P1;SDS_P2;PMS_P1;PMS_P2;Temp;Humidity;BMP_temperature;BMP_pressure;BME280_temperature;BME280_humidity;BME280_pressure;Samples;Min_cycle;Max_cycle;Signal;HPM_P1;HPM_P2
2021/08/17 00:02:20;;;;;;;4.55;2.50;;;11.80;99.90;;;;;;4991688;28;20042;-76
2021/08/17 00:04:48;;;;;;;5.15;3.85;;;11.70;99.90;;;;;;4991358;28;20054;-75
2021/08/17 00:07:17;;;;;;;5.13;3.72;;;11.70;99.90;;;;;;4990518;28;20412;-76
2021/08/17 00:09:45;;;;;;;3.30;2.67;;;11.70;99.90;;;;;;4991656;28;20038;-76
2021/08/17 00:12:12;;;;;;;8.07;2.53;;;11.60;99.90;;;;;;4990635;28;20050;-77
2021/08/17 00:14:40;;;;;;;6.30;5.00;;;11.60;99.90;;;;;;4991127;28;20407;-76
2021/08/17 00:17:10;;;;;;;4.93;3.58;;;11.60;99.90;;;;;;4989768;28;20046;-76
2021/08/17 00:19:40;;;;;;;6.88;3.22;;;11.50;99.90;;;;;;4989430;28;20053;-75
2021/08/17 00:22:07;;;;;;;5.65;3.72;;;11.50;99.90;;;;;;4990932;28;20046;-75
2021/08/17 00:24:36;;;;;;;8.52;4.30;;;11.40;99.90;;;;;;4989822;28;20049;-76
2021/08/17 00:27:05;;;;;;;8.80;4.28;;;11.40;99.90;;;;;;4990881;28;20058;-78
2021/08/17 00:29:33;;;;;;;12.40;5.10;;;11.40;99.90;;;;;;4991360;28;20065;-77
2021/08/17 00:32:01;;;;;;;7.10;4.20;;;11.40;99.90;;;;;;4990825;28;20047;-77
2021/08/17 00:34:29;;;;;;;7.90;4.20;;;11.40;99.90;;;;;;4989816;28;20519;-77
2021/08/17 00:36:56;;;;;;;7.30;3.97;;;11.40;99.90;;;;;;4973419;28;20043;-77
2021/08/17 00:39:26;;;;;;;8.13;5.07;;;11.40;99.90;;;;;;4989491;28;20484;-77
2021/08/17 00:41:53;;;;;;;8.75;6.00;;;11.40;99.90;;;;;;4984928;28;20054;-76
2021/08/17 00:44:28;;;;;;;19.60;5.18;;;11.40;99.90;;;;;;4971182;28;20054;-77
2021/08/17 00:46:57;;;;;;;8.15;4.32;;;11.40;99.90;;;;;;4970759;28;20061;-77
2021/08/17 00:49:26;;;;;;;10.43;5.07;;;11.40;99.90;;;;;;4989377;28;20159;-77
2021/08/17 00:51:55;;;;;;;8.23;5.10;;;11.40;99.90;;;;;;4988355;28;20496;-77
2021/08/17 00:54:23;;;;;;;10.48;5.95;;;11.40;99.90;;;;;;5006017;28;20051;-77
2021/08/17 00:56:55;;;;;;;8.40;6.88;;;11.40;99.90;;;;;;4990637;28;20062;-77
2021/08/17 00:59:23;;;;;;;8.00;5.70;;;11.40;99.90;;;;;;5005271;28;20399;-78
2021/08/17 01:01:50;;;;;;;10.40;5.68;;;11.40;99.90;;;;;;4994717;28;20058;-77
2021/08/17 01:04:19;;;;;;;8.93;5.60;;;11.30;99.90;;;;;;5009381;28;20396;-77
2021/08/17 01:06:47;;;;;;;7.85;5.60;;;11.30;99.90;;;;;;4994717;28;20400;-77
2021/08/17 01:09:15;;;;;;;7.80;5.90;;;11.40;99.90;;;;;;5009388;28;20060;-76
2021/08/17 01:11:45;;;;;;;7.72;5.43;;;11.30;99.90;;;;;;4993784;28;20057;-77
2021/08/17 01:14:14;;;;;;;14.82;5.65;;;11.30;99.90;;;;;;4976610;28;20058;-78
2021/08/17 01:16:43;;;;;;;9.02;5.47;;;11.30;99.90;;;;;;4976649;28;20047;-76
2021/08/17 01:19:27;;;;;;;10.23;6.35;;;11.30;99.90;;;;;;4978874;28;20046;-89
2021/08/17 01:31:05;;;;;;;10.00;5.30;;;11.30;99.90;;;;;;4814897;29;20064;-77
2021/08/17 01:33:36;;;;;;;11.75;6.00;;;11.30;99.90;;;;;;4870015;29;20053;-77
2021/08/17 01:36:04;;;;;;;11.77;7.50;;;11.30;99.90;;;;;;4860432;29;20061;-77
2021/08/17 01:38:34;;;;;;;11.10;5.82;;;11.30;99.90;;;;;;4861182;29;20303;-77
2021/08/17 01:41:02;;;;;;;9.98;5.43;;;11.30;99.90;;;;;;4860091;29;20064;-77
2021/08/17 01:43:30;;;;;;;10.00;5.75;;;11.30;99.90;;;;;;4878271;29;20045;-78
2021/08/17 01:45:59;;;;;;;7.45;4.03;;;11.30;99.90;;;;;;4879533;29;20060;-77
2021/08/17 01:48:30;;;;;;;8.68;5.45;;;11.30;99.90;;;;;;4879059;29;20045;-77
2021/08/17 01:50:59;;;;;;;6.15;3.90;;;11.30;99.90;;;;;;4877668;29;20053;-77
2021/08/17 01:53:27;;;;;;;6.93;3.88;;;11.20;99.90;;;;;;4878596;29;20519;-77
2021/08/17 01:55:55;;;;;;;7.13;3.97;;;11.20;99.90;;;;;;4878859;29;20056;-76
2021/08/17 01:58:27;;;;;;;7.25;2.92;;;11.10;99.90;;;;;;4877776;29;20068;-77
2021/08/17 02:00:54;;;;;;;4.80;4.45;;;11.10;99.90;;;;;;4878559;29;20816;-77
2021/08/17 02:03:22;;;;;;;4.97;3.40;;;11.10;99.90;;;;;;4861957;29;20056;-77
2021/08/17 02:05:50;;;;;;;3.88;2.88;;;11.00;99.90;;;;;;4878896;29;20052;-77
2021/08/17 02:08:18;;;;;;;6.88;3.35;;;10.90;99.90;;;;;;4861982;29;20053;-77
2021/08/17 02:10:45;;;;;;;4.97;3.30;;;10.90;99.90;;;;;;4861192;29;20064;-77
2021/08/17 02:13:16;;;;;;;4.38;3.25;;;10.90;99.90;;;;;;4875728;29;20053;-77
2021/08/17 02:15:45;;;;;;;5.22;3.38;;;10.90;99.90;;;;;;4878514;29;20412;-77
2021/08/17 02:18:13;;;;;;;4.28;2.95;;;10.90;99.90;;;;;;4864836;29;20052;-77
2021/08/17 02:20:41;;;;;;;5.90;3.30;;;10.80;99.90;;;;;;4896478;29;20064;-77
2021/08/17 02:23:09;;;;;;;5.07;4.38;;;10.80;99.90;;;;;;4896853;29;20048;-77
2021/08/17 02:25:37;;;;;;;5.85;4.63;;;10.80;99.90;;;;;;4880774;29;20056;-77
2021/08/17 02:28:04;;;;;;;5.30;3.03;;;10.80;99.90;;;;;;4897014;29;20045;-77
2021/08/17 02:30:33;;;;;;;4.63;3.10;;;10.80;99.90;;;;;;4897532;29;20406;-77
2021/08/17 02:33:00;;;;;;;2.80;2.13;;;10.70;99.90;;;;;;4896752;29;20051;-77
2021/08/17 02:35:28;;;;;;;3.75;2.53;;;10.70;99.90;;;;;;4896851;29;20052;-77
2021/08/17 02:37:56;;;;;;;4.55;3.05;;;10.70;99.90;;;;;;4897193;29;20056;-77
2021/08/17 02:40:24;;;;;;;3.70;2.30;;;10.70;99.90;;;;;;4880084;29;20047;-77
2021/08/17 02:42:51;;;;;;;4.10;2.75;;;10.70;99.90;;;;;;4866861;29;20053;-77
2021/08/17 02:45:19;;;;;;;5.30;2.75;;;10.70;99.90;;;;;;4861575;29;20041;-78
2021/08/17 02:47:47;;;;;;;5.30;3.00;;;10.70;99.90;;;;;;4854264;29;20735;-77
2021/08/17 02:50:15;;;;;;;6.43;3.13;;;10.70;99.90;;;;;;4858545;29;20057;-77
2021/08/17 02:52:43;;;;;;;3.75;2.72;;;10.70;99.90;;;;;;4859021;29;20058;-77
2021/08/17 02:55:12;;;;;;;5.45;2.92;;;10.70;99.90;;;;;;4859425;29;20049;-77
2021/08/17 02:57:47;;;;;;;13.70;3.15;;;10.60;99.90;;;;;;4859285;29;20057;-77
2021/08/17 03:00:17;;;;;;;5.53;2.90;;;10.70;99.90;;;;;;4858988;29;20045;-77
2021/08/17 03:02:45;;;;;;;2.75;2.22;;;10.60;99.90;;;;;;4843225;29;20053;-77
2021/08/17 03:05:13;;;;;;;3.55;2.45;;;10.60;99.90;;;;;;4858037;29;20049;-76
2021/08/17 03:07:55;;;;;;;4.90;2.25;;;10.60;99.90;;;;;;4858727;29;20057;-77
2021/08/17 03:10:23;;;;;;;5.43;2.55;;;10.60;99.90;;;;;;4859303;29;20058;-76
2021/08/17 03:12:51;;;;;;;1.73;1.42;;;10.50;99.90;;;;;;4860526;29;20064;-76
2021/08/17 03:15:20;;;;;;;4.05;1.98;;;10.50;99.90;;;;;;4877697;29;20483;-76
2021/08/17 03:17:48;;;;;;;3.83;2.22;;;10.50;99.90;;;;;;4877897;29;20391;-76
2021/08/17 03:20:18;;;;;;;3.03;2.45;;;10.50;99.90;;;;;;4879106;29;20059;-76
2021/08/17 03:22:45;;;;;;;2.63;2.42;;;10.40;99.90;;;;;;4895777;29;20052;-76
2021/08/17 03:25:14;;;;;;;3.17;2.92;;;10.40;99.90;;;;;;4895738;29;20056;-77
2021/08/17 03:27:42;;;;;;;4.15;2.70;;;10.40;99.90;;;;;;4895798;29;20414;-77
2021/08/17 03:30:14;;;;;;;3.67;1.77;;;10.30;99.90;;;;;;4879606;29;20055;-77
2021/08/17 03:32:42;;;;;;;2.47;1.67;;;10.40;99.90;;;;;;4893790;29;20052;-77
2021/08/17 03:35:10;;;;;;;3.45;2.58;;;10.40;99.90;;;;;;4858737;29;20057;-77
2021/08/17 03:37:39;;;;;;;3.42;1.83;;;10.40;99.90;;;;;;4858479;29;20054;-77
2021/08/17 03:40:12;;;;;;;3.72;1.83;;;10.40;99.90;;;;;;4858717;29;20045;-77
2021/08/17 03:42:40;;;;;;;2.95;1.80;;;10.30;99.90;;;;;;4870263;29;20053;-78
2021/08/17 03:45:11;;;;;;;2.97;1.63;;;10.30;99.90;;;;;;4860423;29;20415;-78
2021/08/17 03:47:38;;;;;;;2.23;1.33;;;10.30;99.90;;;;;;4860368;29;20052;-77
2021/08/17 03:50:10;;;;;;;4.45;1.90;;;10.30;99.90;;;;;;4876934;29;20048;-77
2021/08/17 03:52:40;;;;;;;1.63;1.23;;;10.30;99.90;;;;;;4876723;29;20593;-77
2021/08/17 03:55:09;;;;;;;3.65;1.60;;;10.30;99.90;;;;;;4877014;29;20045;-77
2021/08/17 03:57:36;;;;;;;2.45;1.60;;;10.30;99.90;;;;;;4860242;29;20049;-77
2021/08/17 04:00:09;;;;;;;2.58;1.88;;;10.30;99.90;;;;;;4876102;29;20104;-77
2021/08/17 04:02:41;;;;;;;3.85;1.98;;;10.30;99.90;;;;;;4876942;29;20509;-77
2021/08/17 04:05:12;;;;;;;3.17;2.00;;;10.40;99.90;;;;;;4876899;29;20419;-77
2021/08/17 04:07:40;;;;;;;5.05;1.75;;;10.40;99.90;;;;;;4876490;29;20495;-77
2021/08/17 04:10:08;;;;;;;3.72;3.38;;;10.40;99.90;;;;;;4877244;29;20059;-77
2021/08/17 04:12:37;;;;;;;5.07;2.60;;;10.40;99.90;;;;;;4861262;29;20053;-78
2021/08/17 04:15:06;;;;;;;5.10;3.42;;;10.40;99.90;;;;;;4858126;29;20052;-79
2021/08/17 04:17:35;;;;;;;3.90;2.33;;;10.40;99.90;;;;;;4858724;29;20053;-78
2021/08/17 04:20:05;;;;;;;1.98;1.77;;;10.40;99.90;;;;;;4874803;29;20048;-78
2021/08/17 04:22:32;;;;;;;5.05;1.90;;;10.30;99.90;;;;;;4895728;29;20052;-78
2021/08/17 04:25:01;;;;;;;4.90;2.55;;;10.30;99.90;;;;;;4895439;29;20047;-78
2021/08/17 04:27:28;;;;;;;7.68;2.13;;;10.30;99.90;;;;;;4894645;29;20051;-77
2021/08/17 04:29:56;;;;;;;5.78;2.05;;;10.30;99.90;;;;;;4858522;29;20057;-78
2021/08/17 04:32:24;;;;;;;3.35;2.97;;;10.30;99.90;;;;;;4841433;29;20053;-78
2021/08/17 04:34:51;;;;;;;2.47;2.00;;;10.30;99.90;;;;;;4859458;29;20045;-78
2021/08/17 04:37:19;;;;;;;3.15;2.00;;;10.30;99.90;;;;;;4861514;29;20037;-78
2021/08/17 04:39:47;;;;;;;2.85;2.65;;;10.30;99.90;;;;;;4861735;29;20072;-78
2021/08/17 04:42:14;;;;;;;3.42;2.35;;;10.20;99.90;;;;;;4861532;29;20049;-78
2021/08/17 04:44:42;;;;;;;2.58;2.08;;;10.20;99.90;;;;;;4861565;29;20045;-78
2021/08/17 04:47:10;;;;;;;5.68;2.85;;;10.20;99.90;;;;;;4863373;29;20504;-78
2021/08/17 04:49:38;;;;;;;4.70;2.08;;;10.20;99.90;;;;;;4880663;29;20053;-78
2021/08/17 04:52:05;;;;;;;2.03;1.77;;;10.20;99.90;;;;;;4879784;29;20057;-78
2021/08/17 04:54:33;;;;;;;4.30;2.20;;;10.20;99.90;;;;;;4880452;29;20052;-78
2021/08/17 04:57:01;;;;;;;7.35;3.63;;;10.10;99.90;;;;;;4880063;29;20053;-77
2021/08/17 04:59:29;;;;;;;8.75;2.90;;;10.10;99.90;;;;;;4879755;29;20414;-77
2021/08/17 05:01:56;;;;;;;4.10;1.75;;;10.10;99.90;;;;;;4880275;29;20398;-77
2021/08/17 05:04:24;;;;;;;3.10;1.75;;;10.10;99.90;;;;;;4879946;29;20048;-77
2021/08/17 05:06:52;;;;;;;3.30;1.90;;;10.10;99.90;;;;;;4863586;29;20052;-77
2021/08/17 05:09:20;;;;;;;4.75;2.28;;;10.20;99.90;;;;;;4879332;29;20052;-77
2021/08/17 05:11:47;;;;;;;5.50;1.65;;;10.20;99.90;;;;;;4879539;29;20057;-77
2021/08/17 05:14:15;;;;;;;3.33;2.47;;;10.20;99.90;;;;;;4880276;29;20052;-77
2021/08/17 05:16:43;;;;;;;2.90;2.70;;;10.10;99.90;;;;;;4879809;29;20053;-77
2021/08/17 05:19:10;;;;;;;1.88;1.70;;;10.10;99.90;;;;;;4889543;29;20391;-77
2021/08/17 05:21:38;;;;;;;2.08;1.98;;;10.10;99.90;;;;;;4898647;29;20394;-78
2021/08/17 05:24:06;;;;;;;3.53;2.25;;;10.10;99.90;;;;;;4898345;29;20049;-77
2021/08/17 05:26:35;;;;;;;4.00;2.80;;;10.20;99.90;;;;;;4898902;29;20061;-77
2021/08/17 05:29:02;;;;;;;5.05;4.10;;;10.20;99.90;;;;;;4868632;29;20488;-78
2021/08/17 05:31:30;;;;;;;3.88;1.85;;;10.30;99.90;;;;;;4879381;29;20423;-78
2021/08/17 05:33:58;;;;;;;10.10;2.35;;;10.50;99.90;;;;;;4859776;29;20049;-78
2021/08/17 05:36:26;;;;;;;2.72;2.22;;;10.40;99.90;;;;;;4860232;29;20046;-77
2021/08/17 05:38:53;;;;;;;2.53;1.67;;;10.50;99.90;;;;;;4844617;29;20057;-77
2021/08/17 05:41:22;;;;;;;4.10;2.95;;;10.60;99.90;;;;;;4843963;29;20060;-77
2021/08/17 05:43:50;;;;;;;2.17;1.73;;;10.50;99.90;;;;;;4860127;29;20514;-78
2021/08/17 05:46:17;;;;;;;9.20;3.08;;;10.40;99.90;;;;;;4860635;29;20067;-77
2021/08/17 05:48:45;;;;;;;4.90;2.80;;;10.40;99.90;;;;;;4860492;29;20057;-77
2021/08/17 05:51:13;;;;;;;5.72;2.95;;;10.40;99.90;;;;;;4860014;29;20061;-77
2021/08/17 05:53:40;;;;;;;4.05;1.90;;;10.50;99.90;;;;;;4861026;29;20056;-84
2021/08/17 05:56:09;;;;;;;4.97;3.00;;;10.60;99.90;;;;;;4859094;29;20053;-83
2021/08/17 05:58:37;;;;;;;4.43;3.33;;;10.70;99.90;;;;;;4836790;29;20086;-84
2021/08/17 06:01:05;;;;;;;2.92;1.88;;;10.80;99.90;;;;;;4862352;29;20061;-83
2021/08/17 06:03:49;;;;;;;4.68;2.38;;;10.80;99.90;;;;;;4878983;29;20053;-84
2021/08/17 06:06:17;;;;;;;5.10;2.38;;;10.90;99.90;;;;;;4879368;29;20056;-84
2021/08/17 06:08:44;;;;;;;5.47;2.50;;;11.00;99.90;;;;;;4879140;29;20053;-82
2021/08/17 06:11:12;;;;;;;3.05;2.75;;;11.00;99.90;;;;;;4874127;29;20049;-82
2021/08/17 06:13:40;;;;;;;5.95;2.55;;;11.10;99.90;;;;;;4860398;29;20056;-83
2021/08/17 06:16:08;;;;;;;3.85;2.28;;;11.20;99.90;;;;;;4860328;29;20487;-83
2021/08/17 06:18:36;;;;;;;8.25;2.72;;;11.20;99.90;;;;;;4861193;29;20396;-82
2021/08/17 06:21:03;;;;;;;2.20;1.75;;;11.30;99.90;;;;;;4860160;29;20041;-81
2021/08/17 06:23:31;;;;;;;5.65;2.65;;;11.30;99.90;;;;;;4843601;29;20045;-82
2021/08/17 06:25:59;;;;;;;3.25;2.45;;;11.40;99.90;;;;;;4856308;29;20060;-82
2021/08/17 06:28:27;;;;;;;3.00;2.58;;;11.50;99.90;;;;;;4848268;29;20045;-82
2021/08/17 06:30:55;;;;;;;4.13;2.13;;;11.70;99.90;;;;;;4859247;29;20563;-82
2021/08/17 06:33:23;;;;;;;2.53;2.13;;;12.20;99.90;;;;;;4860426;29;20037;-84
2021/08/17 06:35:50;;;;;;;5.63;2.20;;;12.60;99.90;;;;;;4859664;29;20061;-82
2021/08/17 06:38:18;;;;;;;2.88;2.25;;;12.70;99.90;;;;;;4860431;29;20041;-81
2021/08/17 06:40:46;;;;;;;4.75;2.75;;;12.50;99.90;;;;;;4858646;29;20049;-81
2021/08/17 06:43:13;;;;;;;3.58;3.33;;;12.00;99.90;;;;;;4859989;29;20053;-82
2021/08/17 06:45:42;;;;;;;8.10;2.20;;;11.80;99.90;;;;;;4860399;29;20061;-82
2021/08/17 06:48:09;;;;;;;3.70;2.38;;;11.90;99.90;;;;;;4848615;29;20054;-83
2021/08/17 06:50:43;;;;;;;3.08;2.35;;;11.80;99.90;;;;;;4824831;29;20053;-82
2021/08/17 06:53:11;;;;;;;7.55;2.30;;;11.70;99.90;;;;;;4839990;29;20082;-81
2021/08/17 06:55:42;;;;;;;4.13;2.25;;;11.60;99.90;;;;;;4842180;29;20084;-81
2021/08/17 06:58:15;;;;;;;4.35;2.47;;;11.60;99.90;;;;;;4853607;29;20382;-80
2021/08/17 07:00:52;;;;;;;4.38;2.10;;;11.60;99.90;;;;;;4859063;29;20048;-83
2021/08/17 07:03:22;;;;;;;5.20;2.60;;;11.60;99.90;;;;;;4843465;29;20056;-82
2021/08/17 07:05:50;;;;;;;3.25;2.03;;;11.60;99.90;;;;;;4859793;29;20083;-82
2021/08/17 07:08:18;;;;;;;5.20;3.53;;;11.60;99.90;;;;;;4857345;29;20773;-82
2021/08/17 07:10:48;;;;;;;4.88;2.97;;;11.60;99.90;;;;;;4841774;29;20057;-81
2021/08/17 07:13:27;;;;;;;4.10;3.03;;;12.10;99.90;;;;;;4857315;29;20050;-82
2021/08/17 07:15:56;;;;;;;3.05;2.47;;;12.50;99.90;;;;;;4875140;29;20060;-81
2021/08/17 07:18:24;;;;;;;4.45;3.42;;;12.30;99.90;;;;;;4861212;29;20045;-82
2021/08/17 07:20:54;;;;;;;5.20;3.17;;;12.30;99.90;;;;;;4876315;29;20056;-82
2021/08/17 07:23:26;;;;;;;7.38;2.53;;;12.30;99.90;;;;;;4876857;29;20498;-82
2021/08/17 07:25:54;;;;;;;3.42;2.13;;;12.50;99.90;;;;;;4877078;29;20053;-83
2021/08/17 07:28:23;;;;;;;4.43;3.05;;;12.80;99.90;;;;;;4864317;29;20057;-81
2021/08/17 07:30:53;;;;;;;6.50;2.72;;;12.90;99.90;;;;;;4858773;29;20064;-82
2021/08/17 07:33:22;;;;;;;6.47;2.53;;;12.60;99.90;;;;;;4857796;29;20053;-82
2021/08/17 07:35:50;;;;;;;4.05;2.55;;;12.60;99.90;;;;;;4858443;29;20049;-82
2021/08/17 07:38:18;;;;;;;5.07;3.90;;;12.60;99.90;;;;;;4857213;29;20053;-82
2021/08/17 07:40:46;;;;;;;5.85;3.47;;;12.40;99.90;;;;;;4856800;29;20408;-82
2021/08/17 07:43:14;;;;;;;6.88;2.90;;;12.40;99.90;;;;;;4841590;29;20514;-83
2021/08/17 07:45:41;;;;;;;6.30;3.67;;;12.50;99.90;;;;;;4858829;29;20052;-82
2021/08/17 07:48:30;;;;;;;4.40;2.58;;;12.50;99.90;;;;;;4856683;29;20050;-83
2021/08/17 07:50:58;;;;;;;5.43;3.35;;;12.80;99.90;;;;;;4862762;29;20057;-82
2021/08/17 07:53:25;;;;;;;5.72;4.28;;;13.00;99.90;;;;;;4860263;29;20049;-83
2021/08/17 07:55:53;;;;;;;4.20;2.75;;;13.20;99.90;;;;;;4873645;29;20044;-83
2021/08/17 07:58:21;;;;;;;7.13;4.28;;;13.00;99.90;;;;;;4856935;29;20061;-85
2021/08/17 08:00:49;;;;;;;5.15;3.35;;;12.90;99.90;;;;;;4856512;29;20049;-85
2021/08/17 08:03:17;;;;;;;3.72;3.42;;;13.00;99.90;;;;;;4857155;29;20475;-81
2021/08/17 08:05:45;;;;;;;5.40;3.33;;;13.10;99.90;;;;;;4858890;29;20045;-81
2021/08/17 08:08:13;;;;;;;4.30;3.17;;;13.30;99.90;;;;;;4856512;29;20060;-83
2021/08/17 08:10:41;;;;;;;3.05;2.40;;;13.40;99.90;;;;;;4857240;29;20072;-83
2021/08/17 08:13:09;;;;;;;3.08;2.78;;;13.30;99.90;;;;;;4839832;29;20057;-82
2021/08/17 08:15:37;;;;;;;6.15;3.40;;;13.40;99.90;;;;;;4840042;29;20053;-81
2021/08/17 08:18:06;;;;;;;3.33;2.25;;;13.60;99.90;;;;;;4841228;29;20065;-84
2021/08/17 08:20:35;;;;;;;2.75;1.98;;;13.40;99.90;;;;;;4874947;29;20518;-81
2021/08/17 08:23:05;;;;;;;8.55;3.65;;;13.20;99.90;;;;;;4859904;29;20387;-83
2021/08/17 08:25:33;;;;;;;4.65;2.65;;;13.40;99.90;;;;;;4885949;29;20509;-79
2021/08/17 08:28:01;;;;;;;4.80;2.28;;;13.50;99.90;;;;;;4874714;29;20056;-82
2021/08/17 08:30:29;;;;;;;5.22;4.03;;;13.60;99.90;;;;;;4872924;29;20060;-79
2021/08/17 08:32:57;;;;;;;3.10;2.80;;;13.80;99.90;;;;;;4876484;29;20056;-83
2021/08/17 08:35:26;;;;;;;3.22;2.08;;;13.70;99.90;;;;;;4875878;29;20060;-80
2021/08/17 08:37:54;;;;;;;4.70;4.03;;;13.60;99.90;;;;;;4876636;29;20482;-81
2021/08/17 08:40:25;;;;;;;4.75;1.88;;;13.50;99.90;;;;;;4876274;29;20052;-79
2021/08/17 08:42:53;;;;;;;6.28;2.85;;;13.50;99.90;;;;;;4875128;29;20380;-80
2021/08/17 08:45:23;;;;;;;3.03;2.78;;;13.60;99.90;;;;;;4858895;29;20042;-81
2021/08/17 08:47:50;;;;;;;4.47;2.47;;;13.80;99.90;;;;;;4868502;29;20045;-79
2021/08/17 08:50:19;;;;;;;2.60;2.25;;;13.80;99.90;;;;;;4859869;29;20392;-79
2021/08/17 08:52:46;;;;;;;5.88;2.22;;;13.60;99.90;;;;;;4893616;29;20079;-79
2021/08/17 08:55:15;;;;;;;4.40;2.58;;;13.50;99.90;;;;;;4876952;29;20045;-79
2021/08/17 08:57:43;;;;;;;3.17;2.47;;;13.70;99.90;;;;;;4875338;29;20064;-79
2021/08/17 09:00:12;;;;;;;6.93;3.05;;;14.10;99.90;;;;;;4859560;29;20063;-79
2021/08/17 09:02:42;;;;;;;3.22;1.90;;;14.40;99.90;;;;;;4878106;29;20072;-78
2021/08/17 09:05:10;;;;;;;2.63;2.15;;;14.30;99.90;;;;;;4894651;29;20057;-79
2021/08/17 09:07:43;;;;;;;9.55;3.00;;;14.20;99.90;;;;;;4877688;29;20069;-78
2021/08/17 09:10:13;;;;;;;2.53;2.00;;;14.00;99.90;;;;;;4894926;29;20185;-78
2021/08/17 09:12:50;;;;;;;3.67;2.40;;;13.90;99.90;;;;;;4877380;29;20060;-79
2021/08/17 09:15:36;;;;;;;4.32;2.40;;;13.90;99.90;;;;;;4894517;29;20056;-79
2021/08/17 09:18:05;;;;;;;8.20;2.88;;;14.10;99.90;;;;;;4894626;29;20047;-79
2021/08/17 09:20:42;;;;;;;3.50;2.20;;;14.80;99.90;;;;;;4877695;29;20627;-80
2021/08/17 09:23:18;;;;;;;3.63;2.45;;;14.60;99.90;;;;;;4890720;29;20041;-81
2021/08/17 09:25:46;;;;;;;2.95;2.65;;;14.10;99.90;;;;;;4879382;29;20083;-77
2021/08/17 09:28:35;;;;;;;1.63;1.50;;;13.90;99.90;;;;;;4878212;29;20045;-79
2021/08/17 09:31:24;;;;;;;7.35;2.13;;;13.70;99.90;;;;;;4861989;29;20061;-81
2021/08/17 09:33:52;;;;;;;3.70;2.05;;;14.10;99.90;;;;;;4866635;29;20061;-80
2021/08/17 09:36:20;;;;;;;4.00;2.17;;;14.40;99.90;;;;;;4860408;29;20407;-83
2021/08/17 09:38:50;;;;;;;3.77;2.67;;;14.80;99.90;;;;;;4862102;29;20048;-81
2021/08/17 09:41:24;;;;;;;4.13;3.55;;;15.10;99.90;;;;;;4862300;29;20052;-81
2021/08/17 09:44:02;;;;;;;4.43;2.03;;;15.20;99.90;;;;;;4861575;29;20045;-81
2021/08/17 09:46:34;;;;;;;3.00;2.08;;;15.00;99.90;;;;;;4879078;29;20080;-81
2021/08/17 09:49:26;;;;;;;4.75;2.08;;;14.80;99.90;;;;;;4862272;29;20804;-82
2021/08/17 09:51:54;;;;;;;3.63;2.35;;;14.50;99.90;;;;;;4874615;29;20490;-82
2021/08/17 09:54:24;;;;;;;5.30;2.60;;;14.50;99.90;;;;;;4897705;29;20454;-81
2021/08/17 09:56:57;;;;;;;3.97;2.17;;;14.60;99.90;;;;;;4880584;29;20122;-80
2021/08/17 09:59:29;;;;;;;7.50;3.10;;;14.70;99.90;;;;;;4846820;29;20484;-82
2021/08/17 10:02:03;;;;;;;2.90;2.50;;;14.40;99.90;;;;;;4863825;29;20068;-80
2021/08/17 10:04:33;;;;;;;3.97;2.13;;;14.60;99.90;;;;;;4865122;29;20056;-82
2021/08/17 10:07:04;;;;;;;3.05;2.05;;;14.70;99.90;;;;;;4881111;29;20056;-80
2021/08/17 10:09:34;;;;;;;5.20;1.73;;;14.50;99.90;;;;;;4896877;29;20060;-80
2021/08/17 10:12:04;;;;;;;4.60;2.42;;;14.70;99.90;;;;;;4888684;29;20048;-80
2021/08/17 10:14:33;;;;;;;4.07;2.42;;;14.90;99.90;;;;;;4880511;29;20638;-79
2021/08/17 10:17:01;;;;;;;3.60;2.75;;;14.50;99.90;;;;;;4881481;29;20049;-80
2021/08/17 10:19:32;;;;;;;3.97;2.25;;;14.30;99.90;;;;;;4868863;29;20060;-79
2021/08/17 10:22:01;;;;;;;;;;;14.30;99.90;;;;;;4884788;29;20049;-81
2021/08/17 10:24:33;;;;;;;3.30;2.00;;;14.50;99.90;;;;;;4861905;29;19931;-82
2021/08/17 10:27:20;;;;;;;2.58;2.38;;;14.80;99.90;;;;;;4883559;29;20505;-80
2021/08/17 10:29:57;;;;;;;3.20;2.30;;;14.60;99.90;;;;;;4875540;29;20053;-81
2021/08/17 10:32:41;;;;;;;3.30;2.20;;;14.50;99.90;;;;;;4876586;29;20049;-81
2021/08/17 10:35:29;;;;;;;4.10;3.05;;;14.60;99.90;;;;;;4861257;29;20060;-81
2021/08/17 10:38:12;;;;;;;5.68;2.42;;;14.80;99.90;;;;;;4876711;29;20052;-80
2021/08/17 10:40:52;;;;;;;3.72;2.35;;;14.80;99.90;;;;;;4876160;29;20704;-80
2021/08/17 10:43:31;;;;;;;3.60;2.13;;;14.70;99.90;;;;;;4876276;29;20057;-83
2021/08/17 10:46:03;;;;;;;4.97;2.50;;;14.70;99.90;;;;;;4854247;29;20064;-83
2021/08/17 10:48:46;;;;;;;4.40;2.53;;;14.90;99.90;;;;;;4865558;29;20045;-82
2021/08/17 10:51:22;;;;;;;4.47;2.97;;;15.00;99.90;;;;;;4878591;29;20057;-83
2021/08/17 10:54:14;;;;;;;2.22;1.85;;;15.20;99.90;;;;;;4879969;29;20048;-83
2021/08/17 10:56:44;;;;;;;2.78;1.85;;;15.30;99.90;;;;;;4864395;29;20062;-81
2021/08/17 10:59:12;;;;;;;2.95;2.45;;;15.40;99.90;;;;;;4883748;29;20064;-81
2021/08/17 11:01:45;;;;;;;3.65;1.95;;;15.60;99.90;;;;;;4879664;29;20052;-86
2021/08/17 11:04:15;;;;;;;7.10;2.45;;;15.60;99.90;;;;;;4879824;29;20045;-81
2021/08/17 11:06:50;;;;;;;6.68;2.60;;;15.50;99.90;;;;;;4896361;29;20052;-81
2021/08/17 11:09:19;;;;;;;2.92;2.30;;;15.50;99.90;;;;;;4884124;29;20053;-84
2021/08/17 11:11:54;;;;;;;2.85;2.40;;;15.50;99.90;;;;;;4841191;29;20049;-82
2021/08/17 11:14:32;;;;;;;3.70;1.83;;;15.40;99.90;;;;;;4858801;29;20064;-81
2021/08/17 11:17:05;;;;;;;2.03;1.65;;;15.80;99.90;;;;;;4842258;29;20054;-81
2021/08/17 11:19:34;;;;;;;3.47;2.13;;;15.90;99.90;;;;;;4884016;29;20045;-81
2021/08/17 11:22:10;;;;;;;5.05;1.98;;;16.00;99.90;;;;;;4879239;29;20055;-80
2021/08/17 11:24:40;;;;;;;3.50;2.78;;;15.40;99.90;;;;;;4895768;29;20064;-80
2021/08/17 11:27:14;;;;;;;2.03;1.58;;;15.10;99.90;;;;;;4895983;29;20061;-79
2021/08/17 11:29:47;;;;;;;5.03;2.08;;;15.00;99.90;;;;;;4879253;29;20060;-79
2021/08/17 11:32:35;;;;;;;4.63;2.53;;;15.20;99.90;;;;;;4844683;29;20049;-77
2021/08/17 11:35:05;;;;;;;4.75;2.05;;;15.30;99.90;;;;;;4873266;29;20076;-79
2021/08/17 11:37:34;;;;;;;2.97;1.83;;;15.60;99.90;;;;;;4875953;29;20053;-78
2021/08/17 11:40:06;;;;;;;3.90;1.73;;;15.90;99.90;;;;;;4876595;29;20498;-79
2021/08/17 11:42:37;;;;;;;3.85;2.45;;;16.10;99.90;;;;;;4859985;29;20301;-79
2021/08/17 11:45:12;;;;;;;6.55;2.55;;;16.10;99.90;;;;;;4859173;29;20056;-78
2021/08/17 11:47:42;;;;;;;10.75;2.95;;;16.00;99.90;;;;;;4859544;29;20399;-79
2021/08/17 11:50:12;;;;;;;3.35;1.70;;;15.70;99.90;;;;;;4877080;29;20396;-80
2021/08/17 11:52:41;;;;;;;3.30;2.15;;;15.90;99.90;;;;;;4894901;29;20056;-79
2021/08/17 11:55:14;;;;;;;3.92;2.65;;;16.20;99.90;;;;;;4878578;29;20490;-79
2021/08/17 11:57:45;;;;;;;3.63;2.10;;;16.40;99.90;;;;;;4876259;29;20056;-81
2021/08/17 12:00:22;;;;;;;3.80;2.22;;;16.40;99.90;;;;;;4876363;29;20041;-81
2021/08/17 12:02:52;;;;;;;2.95;2.65;;;16.50;99.90;;;;;;4877034;29;20049;-81
2021/08/17 12:05:23;;;;;;;3.13;2.30;;;16.50;99.90;;;;;;4875875;29;20049;-79
2021/08/17 12:07:55;;;;;;;4.70;2.92;;;16.30;99.90;;;;;;4857806;29;20041;-80
2021/08/17 12:10:34;;;;;;;3.55;2.22;;;16.30;99.90;;;;;;4857896;29;20064;-81
2021/08/17 12:13:04;;;;;;;5.18;2.25;;;16.20;99.90;;;;;;4857461;29;20056;-80
2021/08/17 12:15:54;;;;;;;6.05;1.42;;;16.00;99.90;;;;;;4841343;29;20057;-79
2021/08/17 12:18:26;;;;;;;5.50;2.55;;;15.80;99.90;;;;;;4867495;29;20048;-79
2021/08/17 12:20:58;;;;;;;8.50;3.05;;;15.80;99.90;;;;;;4846882;29;20048;-80
2021/08/17 12:23:29;;;;;;;7.05;3.05;;;15.90;99.90;;;;;;4894846;29;20352;-79
2021/08/17 12:26:27;;;;;;;5.53;2.95;;;16.10;99.90;;;;;;4879050;29;20406;-81
2021/08/17 12:29:07;;;;;;;3.65;2.15;;;16.30;99.90;;;;;;4883358;29;20041;-80
2021/08/17 12:31:37;;;;;;;11.10;3.20;;;16.50;99.90;;;;;;4876181;29;20041;-81
2021/08/17 12:34:04;;;;;;;5.03;1.60;;;16.40;99.90;;;;;;4875873;29;20053;-79
2021/08/17 12:36:41;;;;;;;3.85;2.58;;;16.50;99.90;;;;;;4859433;29;20515;-82
2021/08/17 12:39:26;;;;;;;1.88;1.50;;;16.30;99.90;;;;;;4876938;29;20045;-82
2021/08/17 12:42:04;;;;;;;3.67;1.75;;;16.20;99.90;;;;;;4895247;29;20044;-80
2021/08/17 12:44:38;;;;;;;3.63;2.55;;;16.30;99.90;;;;;;4878124;29;20060;-79
2021/08/17 12:47:11;;;;;;;4.32;1.80;;;16.30;99.90;;;;;;4893258;29;20407;-79
2021/08/17 12:49:39;;;;;;;4.75;2.15;;;16.30;99.90;;;;;;4859988;29;20052;-80
2021/08/17 12:52:25;;;;;;;4.82;2.70;;;16.30;99.90;;;;;;4874379;29;20056;-81
2021/08/17 12:55:15;;;;;;;9.50;2.28;;;16.50;99.90;;;;;;4882277;29;20053;-80
2021/08/17 12:57:51;;;;;;;2.50;1.42;;;16.60;99.90;;;;;;4862189;29;20053;-83
2021/08/17 13:00:22;;;;;;;2.42;1.60;;;16.70;99.90;;;;;;4862908;29;20053;-81
2021/08/17 13:02:52;;;;;;;2.08;1.52;;;16.80;99.90;;;;;;4863235;29;20064;-81
2021/08/17 13:05:22;;;;;;;3.83;2.08;;;16.90;99.90;;;;;;4898089;29;20384;-81
2021/08/17 13:07:50;;;;;;;2.08;1.75;;;16.80;99.90;;;;;;4862589;29;20057;-82
2021/08/17 13:10:19;;;;;;;2.67;2.35;;;17.00;99.90;;;;;;4862333;29;20057;-82
2021/08/17 13:12:47;;;;;;;4.30;3.25;;;17.00;99.90;;;;;;4878958;29;20407;-80